Time;durP1;ratioP1;P1;durP2;ratioP2;P2;SDS_P1;SDS_P2;PMS_P1;PMS_P2;Temp;Humidity;BMP_temperature;BMP_pressure;BME280_temperature;BME280_humidity;BME280_pressure;Samples;Min_cycle;Max_cycle;Signal;HPM_P1;HPM_P2
2023/05/24 00:02:09;;;;;;;;;3.75;3.75;;;;;;;;5029051;28;10210;-82
2023/05/24 00:04:36;;;;;;;;;3.25;3.25;;;;;;;;5033873;28;10111;-82
2023/05/24 00:07:05;;;;;;;;;5.00;3.25;;;;;;;;5035354;28;10187;-86
2023/05/24 00:09:32;;;;;;;;;3.25;3.00;;;;;;;;5030461;28;10261;-83
2023/05/24 00:12:00;;;;;;;;;6.50;4.75;;;;;;;;5030671;28;10301;-84
2023/05/24 00:14:29;;;;;;;;;4.75;3.50;;;;;;;;5029204;28;10237;-85
2023/05/24 00:16:56;;;;;;;;;4.25;3.00;;;;;;;;5028658;28;10362;-85
2023/05/24 00:19:24;;;;;;;;;4.50;3.00;;;;;;;;5029087;28;10256;-85
2023/05/24 00:21:52;;;;;;;;;3.50;3.50;;;;;;;;5028780;28;11085;-84
2023/05/24 00:24:19;;;;;;;;;5.00;3.25;;;;;;;;5033571;28;10402;-84
2023/05/24 00:26:47;;;;;;;;;8.75;5.25;;;;;;;;5029404;28;10344;-82
2023/05/24 00:29:14;;;;;;;;;5.25;4.00;;;;;;;;5029573;28;10362;-83
2023/05/24 00:31:43;;;;;;;;;5.25;4.00;;;;;;;;5028695;28;10208;-86
2023/05/24 00:34:11;;;;;;;;;3.00;2.00;;;;;;;;5029175;28;10326;-87
2023/05/24 00:36:38;;;;;;;;;4.00;4.00;;;;;;;;5029981;28;10336;-85
2023/05/24 00:39:05;;;;;;;;;8.50;4.25;;;;;;;;5030635;28;10348;-80
2023/05/24 00:41:33;;;;;;;;;4.75;4.75;;;;;;;;5029365;28;10425;-85
2023/05/24 00:44:00;;;;;;;;;3.50;3.00;;;;;;;;5030004;28;10580;-84
2023/05/24 00:46:29;;;;;;;;;7.00;4.75;;;;;;;;5035476;28;10623;-82
2023/05/24 00:49:01;;;;;;;;;3.00;3.00;;;;;;;;5030768;28;10262;-84
2023/05/24 00:51:29;;;;;;;;;3.00;3.00;;;;;;;;5030309;28;10318;-83
2023/05/24 00:53:56;;;;;;;;;4.50;4.50;;;;;;;;5029500;28;10469;-85
2023/05/24 00:56:23;;;;;;;;;3.25;3.25;;;;;;;;5029088;28;10511;-86
2023/05/24 00:58:53;;;;;;;;;2.75;2.50;;;;;;;;5028464;28;10561;-85
2023/05/24 01:01:25;;;;;;;;;5.50;5.50;;;;;;;;5028130;28;10554;-84
2023/05/24 01:03:52;;;;;;;;;6.25;5.00;;;;;;;;5028789;28;10559;-87
2023/05/24 01:06:22;;;;;;;;;3.75;3.00;;;;;;;;5030475;28;10607;-85
2023/05/24 01:09:03;;;;;;;;;5.00;4.00;;;;;;;;5036887;28;10460;-85
2023/05/24 01:11:40;;;;;;;;;3.00;3.00;;;;;;;;5050459;28;10660;-88
2023/05/24 01:14:16;;;;;;;;;5.50;5.25;;;;;;;;5034927;28;10788;-83
2023/05/24 01:16:50;;;;;;;;;4.75;4.75;;;;;;;;5032871;28;10832;-83
2023/05/24 01:19:52;;;;;;;;;8.25;6.25;;;;;;;;5031852;28;10751;-84
2023/05/24 01:22:48;;;;;;;;;3.25;3.25;;;;;;;;5010695;28;11030;-83
2023/05/24 01:25:23;;;;;;;;;4.50;3.00;;;;;;;;5027749;28;10865;-85
2023/05/24 01:27:52;;;;;;;;;5.00;4.00;;;;;;;;5035417;28;10863;-82
2023/05/24 01:30:19;;;;;;;;;5.25;3.50;;;;;;;;5034186;28;10776;-87
2023/05/24 01:32:47;;;;;;;;;5.50;5.50;;;;;;;;5034834;28;10700;-86
2023/05/24 01:35:14;;;;;;;;;4.00;4.00;;;;;;;;5033738;28;10785;-84
2023/05/24 01:37:41;;;;;;;;;9.50;4.75;;;;;;;;5033065;28;11509;-89
2023/05/24 01:40:10;;;;;;;;;4.25;4.25;;;;;;;;5033740;28;10946;-89
2023/05/24 01:42:47;;;;;;;;;6.00;4.00;;;;;;;;5034474;28;10768;-87
2023/05/24 01:45:19;;;;;;;;;3.50;3.00;;;;;;;;5035159;28;10868;-87
2023/05/24 01:47:56;;;;;;;;;3.75;3.75;;;;;;;;5034397;28;10554;-86
2023/05/24 01:50:28;;;;;;;;;4.75;4.75;;;;;;;;5033013;28;10733;-86
2023/05/24 01:53:01;;;;;;;;;5.25;4.25;;;;;;;;5025387;28;10784;-86
2023/05/24 01:55:28;;;;;;;;;3.00;3.00;;;;;;;;5032482;28;10775;-86
2023/05/24 01:57:59;;;;;;;;;3.00;3.00;;;;;;;;5031818;28;10900;-87
2023/05/24 02:00:27;;;;;;;;;2.25;2.00;;;;;;;;5030617;28;10606;-85
2023/05/24 02:02:55;;;;;;;;;3.75;3.75;;;;;;;;5032199;28;10763;-82
2023/05/24 02:05:22;;;;;;;;;4.00;4.00;;;;;;;;5034199;28;10949;-81
2023/05/24 02:07:50;;;;;;;;;5.50;3.75;;;;;;;;5033204;28;10725;-85
2023/05/24 02:10:17;;;;;;;;;5.50;2.75;;;;;;;;5033061;28;10691;-82
2023/05/24 02:12:45;;;;;;;;;4.25;3.00;;;;;;;;5033366;28;10787;-82
2023/05/24 02:15:16;;;;;;;;;3.00;2.25;;;;;;;;5033198;28;10628;-84
2023/05/24 02:17:44;;;;;;;;;3.75;3.75;;;;;;;;5033052;28;10750;-84
2023/05/24 02:20:13;;;;;;;;;5.00;3.75;;;;;;;;5038610;28;10779;-82
2023/05/24 02:22:40;;;;;;;;;4.00;4.00;;;;;;;;5030987;28;10682;-85
2023/05/24 02:25:08;;;;;;;;;7.25;3.25;;;;;;;;5031233;28;10669;-86
2023/05/24 02:27:36;;;;;;;;;9.50;5.00;;;;;;;;5031509;28;10838;-84
2023/05/24 02:30:03;;;;;;;;;3.25;3.25;;;;;;;;5030518;28;10839;-81
2023/05/24 02:32:31;;;;;;;;;3.75;3.75;;;;;;;;5030821;28;10903;-81
2023/05/24 02:35:00;;;;;;;;;7.75;4.75;;;;;;;;5029399;28;10838;-87
2023/05/24 02:37:27;;;;;;;;;5.25;4.00;;;;;;;;5030639;28;10860;-85
2023/05/24 02:39:55;;;;;;;;;5.75;4.00;;;;;;;;5031438;28;10889;-87
2023/05/24 02:42:22;;;;;;;;;4.50;3.25;;;;;;;;5031349;28;10922;-80
2023/05/24 02:44:51;;;;;;;;;6.50;4.75;;;;;;;;5034373;28;10991;-82
2023/05/24 02:47:18;;;;;;;;;4.00;4.00;;;;;;;;5034128;28;11075;-87
2023/05/24 02:49:45;;;;;;;;;2.00;2.00;;;;;;;;5032811;28;11003;-81
2023/05/24 02:52:14;;;;;;;;;4.50;3.50;;;;;;;;5021987;28;11006;-83
2023/05/24 02:54:42;;;;;;;;;3.50;2.00;;;;;;;;5031558;28;10978;-86
2023/05/24 02:57:10;;;;;;;;;6.75;4.25;;;;;;;;5030488;28;10933;-84
2023/05/24 02:59:37;;;;;;;;;5.00;3.25;;;;;;;;5030787;28;10962;-86
2023/05/24 03:02:05;;;;;;;;;7.00;5.75;;;;;;;;5030136;28;10998;-85
2023/05/24 03:04:32;;;;;;;;;8.00;5.75;;;;;;;;5041546;28;10977;-87
2023/05/24 03:07:00;;;;;;;;;3.25;3.25;;;;;;;;5030064;28;11132;-83
2023/05/24 03:09:28;;;;;;;;;6.00;4.00;;;;;;;;5031015;28;10900;-87
2023/05/24 03:11:56;;;;;;;;;4.50;4.50;;;;;;;;5030730;28;11076;-87
2023/05/24 03:14:23;;;;;;;;;4.00;4.00;;;;;;;;5031776;28;11143;-85
2023/05/24 03:16:51;;;;;;;;;5.00;5.00;;;;;;;;5037232;28;11176;-86
2023/05/24 03:19:19;;;;;;;;;3.25;3.00;;;;;;;;5033600;28;11168;-87
2023/05/24 03:21:46;;;;;;;;;7.50;5.25;;;;;;;;5033997;28;11144;-86
2023/05/24 03:24:14;;;;;;;;;4.00;4.00;;;;;;;;5033336;28;11252;-84
2023/05/24 03:26:42;;;;;;;;;5.00;5.00;;;;;;;;5033290;28;11757;-85
2023/05/24 03:29:10;;;;;;;;;8.50;5.00;;;;;;;;5032438;28;10984;-87
2023/05/24 03:31:37;;;;;;;;;4.25;2.00;;;;;;;;5031265;28;11105;-86
2023/05/24 03:34:04;;;;;;;;;5.25;4.25;;;;;;;;5030396;28;11080;-88
2023/05/24 03:36:32;;;;;;;;;5.25;4.00;;;;;;;;5030444;28;11139;-86
2023/05/24 03:38:59;;;;;;;;;5.00;3.25;;;;;;;;5030119;28;11078;-86
2023/05/24 03:41:27;;;;;;;;;6.75;6.00;;;;;;;;5029386;28;11008;-86
2023/05/24 03:43:56;;;;;;;;;6.00;5.50;;;;;;;;5030671;28;11125;-85
2023/05/24 03:46:23;;;;;;;;;5.50;5.50;;;;;;;;5030784;28;11008;-85
2023/05/24 03:48:51;;;;;;;;;7.25;5.50;;;;;;;;5030747;28;10906;-87
2023/05/24 03:51:18;;;;;;;;;6.00;4.75;;;;;;;;5030911;28;11245;-84
2023/05/24 03:53:45;;;;;;;;;6.25;5.00;;;;;;;;5030749;28;11483;-86
2023/05/24 03:56:13;;;;;;;;;7.00;5.00;;;;;;;;5030155;28;11277;-87
2023/05/24 03:58:40;;;;;;;;;6.50;5.00;;;;;;;;5029766;28;11138;-81
2023/05/24 04:01:10;;;;;;;;;3.75;3.75;;;;;;;;5029330;28;11036;-94
2023/05/24 04:03:39;;;;;;;;;9.25;5.00;;;;;;;;5032817;28;11146;-89
2023/05/24 04:06:07;;;;;;;;;7.25;4.00;;;;;;;;5026371;28;11259;-81
2023/05/24 04:08:34;;;;;;;;;8.00;8.00;;;;;;;;5027827;28;11072;-80
2023/05/24 04:11:02;;;;;;;;;5.75;4.25;;;;;;;;5029819;28;11249;-80
2023/05/24 04:13:29;;;;;;;;;7.00;4.75;;;;;;;;5036831;28;11267;-81
2023/05/24 04:15:58;;;;;;;;;6.25;4.25;;;;;;;;5028454;28;11254;-82
2023/05/24 04:18:27;;;;;;;;;8.75;7.50;;;;;;;;5031098;28;11076;-81
2023/05/24 04:20:54;;;;;;;;;9.00;5.50;;;;;;;;5029813;28;11155;-81
2023/05/24 04:23:22;;;;;;;;;8.75;7.50;;;;;;;;5029182;28;11189;-82
2023/05/24 04:25:49;;;;;;;;;4.25;4.25;;;;;;;;5027996;28;11473;-82
2023/05/24 04:28:17;;;;;;;;;6.25;5.25;;;;;;;;5028533;28;11081;-83
2023/05/24 04:30:46;;;;;;;;;6.75;6.75;;;;;;;;5028482;28;11401;-82
2023/05/24 04:33:13;;;;;;;;;8.75;4.50;;;;;;;;5028629;28;11549;-81
2023/05/24 04:35:43;;;;;;;;;5.25;5.00;;;;;;;;5038762;28;10990;-83
2023/05/24 04:38:11;;;;;;;;;5.25;5.00;;;;;;;;5029040;28;11087;-82
2023/05/24 04:40:38;;;;;;;;;5.25;4.00;;;;;;;;5030321;28;11136;-82
2023/05/24 04:43:06;;;;;;;;;5.00;5.00;;;;;;;;5032108;28;11077;-81
2023/05/24 04:45:33;;;;;;;;;8.00;5.75;;;;;;;;5035539;28;11093;-82
2023/05/24 04:48:01;;;;;;;;;10.00;4.50;;;;;;;;5036835;28;11067;-81
2023/05/24 04:50:29;;;;;;;;;8.25;5.75;;;;;;;;5034188;28;11014;-81
2023/05/24 04:52:59;;;;;;;;;7.50;7.50;;;;;;;;5033378;28;11057;-82
2023/05/24 04:55:27;;;;;;;;;7.25;5.25;;;;;;;;5022576;28;11099;-82
2023/05/24 04:57:54;;;;;;;;;6.25;5.25;;;;;;;;5031080;28;11279;-81
2023/05/24 05:00:22;;;;;;;;;5.50;5.00;;;;;;;;5031750;28;11049;-82
2023/05/24 05:02:49;;;;;;;;;3.25;2.25;;;;;;;;5033846;28;10983;-82
2023/05/24 05:05:20;;;;;;;;;4.75;4.75;;;;;;;;5049779;28;11017;-83
2023/05/24 05:07:47;;;;;;;;;9.00;5.00;;;;;;;;5035428;28;11051;-86
2023/05/24 05:10:16;;;;;;;;;9.75;6.00;;;;;;;;5034325;28;11133;-81
2023/05/24 05:12:43;;;;;;;;;5.00;5.00;;;;;;;;5034084;28;11190;-80
2023/05/24 05:15:12;;;;;;;;;4.25;4.25;;;;;;;;5032612;28;10983;-86
2023/05/24 05:17:39;;;;;;;;;8.00;6.25;;;;;;;;5026943;28;11649;-80
2023/05/24 05:20:08;;;;;;;;;8.00;7.00;;;;;;;;5031645;28;10982;-79
2023/05/24 05:22:35;;;;;;;;;6.00;5.25;;;;;;;;5032672;28;11076;-81
2023/05/24 05:25:02;;;;;;;;;6.75;5.00;;;;;;;;5030528;28;10909;-82
2023/05/24 05:27:33;;;;;;;;;5.75;5.75;;;;;;;;5030459;28;11060;-82
2023/05/24 05:30:01;;;;;;;;;5.25;4.00;;;;;;;;5029905;28;11140;-81
2023/05/24 05:32:28;;;;;;;;;6.50;6.50;;;;;;;;5050073;28;11052;-80
2023/05/24 05:34:57;;;;;;;;;5.75;5.25;;;;;;;;5050332;28;11711;-83
2023/05/24 05:37:24;;;;;;;;;9.75;5.50;;;;;;;;5050899;28;11091;-81
2023/05/24 05:39:53;;;;;;;;;8.00;8.00;;;;;;;;5050230;28;11012;-81
2023/05/24 05:42:20;;;;;;;;;7.00;7.00;;;;;;;;5050122;28;10911;-82
2023/05/24 05:44:49;;;;;;;;;10.50;9.25;;;;;;;;5049425;28;11068;-81
2023/05/24 05:47:16;;;;;;;;;9.25;5.25;;;;;;;;5050423;28;11789;-81
2023/05/24 05:49:44;;;;;;;;;9.00;6.50;;;;;;;;5049324;28;11115;-82
2023/05/24 05:52:11;;;;;;;;;6.75;6.75;;;;;;;;5050081;28;11051;-80
2023/05/24 05:54:38;;;;;;;;;9.50;7.25;;;;;;;;5049624;28;11182;-80
2023/05/24 05:57:07;;;;;;;;;5.75;5.75;;;;;;;;5050201;28;10828;-81
2023/05/24 05:59:34;;;;;;;;;6.00;6.00;;;;;;;;5049094;28;10963;-81
2023/05/24 06:02:04;;;;;;;;;5.25;5.25;;;;;;;;5058003;28;11705;-81
2023/05/24 06:04:31;;;;;;;;;2.00;2.00;;;;;;;;5051267;28;11115;-83
2023/05/24 06:07:05;;;;;;;;;6.25;6.25;;;;;;;;5050002;28;11040;-79
2023/05/24 06:09:32;;;;;;;;;9.00;6.00;;;;;;;;5049972;28;10831;-83
2023/05/24 06:12:00;;;;;;;;;8.75;6.00;;;;;;;;5052285;28;11731;-81
2023/05/24 06:14:30;;;;;;;;;13.25;7.50;;;;;;;;5053303;28;11191;-81
2023/05/24 06:16:57;;;;;;;;;3.00;3.00;;;;;;;;5050803;28;11038;-81
2023/05/24 06:19:29;;;;;;;;;11.00;6.00;;;;;;;;5049766;28;10800;-83
2023/05/24 06:21:57;;;;;;;;;7.25;7.00;;;;;;;;5050634;28;10793;-84
2023/05/24 06:24:24;;;;;;;;;8.25;7.50;;;;;;;;5059274;28;10809;-82
2023/05/24 06:26:52;;;;;;;;;6.50;6.00;;;;;;;;5055848;28;10660;-82
2023/05/24 06:29:22;;;;;;;;;8.50;8.00;;;;;;;;5050303;28;11549;-81
2023/05/24 06:31:49;;;;;;;;;5.50;4.25;;;;;;;;5048804;28;10694;-80
2023/05/24 06:34:19;;;;;;;;;8.50;8.00;;;;;;;;5049961;28;10814;-79
2023/05/24 06:36:49;;;;;;;;;8.00;4.50;;;;;;;;5048629;28;10859;-82
2023/05/24 06:39:17;;;;;;;;;5.75;5.75;;;;;;;;5048916;28;10675;-77
2023/05/24 06:41:45;;;;;;;;;5.25;5.25;;;;;;;;5048360;28;10511;-77
2023/05/24 06:44:13;;;;;;;;;7.00;7.00;;;;;;;;5048857;28;10413;-76
2023/05/24 06:46:40;;;;;;;;;8.25;6.50;;;;;;;;5048731;28;10414;-80
2023/05/24 06:49:08;;;;;;;;;5.25;4.25;;;;;;;;5050131;28;10606;-79
2023/05/24 06:51:35;;;;;;;;;9.75;6.00;;;;;;;;5050993;28;10268;-79
2023/05/24 06:54:05;;;;;;;;;5.00;5.00;;;;;;;;5052440;28;10470;-79
2023/05/24 06:56:33;;;;;;;;;7.25;6.00;;;;;;;;5051328;28;10080;-78
2023/05/24 06:59:00;;;;;;;;;8.00;8.00;;;;;;;;5051570;28;10265;-78
2023/05/24 07:01:28;;;;;;;;;6.50;6.50;;;;;;;;5049445;28;10144;-78
2023/05/24 07:03:55;;;;;;;;;6.75;6.00;;;;;;;;5049820;28;10304;-78
2023/05/24 07:06:23;;;;;;;;;10.50;7.00;;;;;;;;5049651;28;9930;-77
2023/05/24 07:08:51;;;;;;;;;7.25;6.75;;;;;;;;5048810;28;11574;-76
2023/05/24 07:11:19;;;;;;;;;6.25;6.25;;;;;;;;5048067;28;10176;-77
2023/05/24 07:13:48;;;;;;;;;5.25;5.25;;;;;;;;5048072;28;10052;-77
2023/05/24 07:16:16;;;;;;;;;6.25;5.50;;;;;;;;5048426;28;10698;-77
2023/05/24 07:18:43;;;;;;;;;5.50;5.50;;;;;;;;5047722;28;9938;-77
2023/05/24 07:21:10;;;;;;;;;7.75;5.50;;;;;;;;5049542;28;9909;-78
2023/05/24 07:23:37;;;;;;;;;5.00;5.00;;;;;;;;5047818;28;10665;-77
2023/05/24 07:26:05;;;;;;;;;9.50;7.00;;;;;;;;5048210;28;9900;-77
2023/05/24 07:28:36;;;;;;;;;5.00;5.00;;;;;;;;5047513;28;9784;-77
2023/05/24 07:31:04;;;;;;;;;6.25;6.25;;;;;;;;5047613;28;9629;-76
2023/05/24 07:33:31;;;;;;;;;3.75;3.75;;;;;;;;5047641;28;9637;-76
2023/05/24 07:35:58;;;;;;;;;7.25;5.00;;;;;;;;5048261;28;9626;-76
2023/05/24 07:38:28;;;;;;;;;4.00;4.00;;;;;;;;5048783;28;9632;-78
2023/05/24 07:40:56;;;;;;;;;6.00;5.75;;;;;;;;5048155;28;9729;-78
2023/05/24 07:43:24;;;;;;;;;5.50;4.50;;;;;;;;5047649;28;9530;-81
2023/05/24 07:45:52;;;;;;;;;5.25;5.25;;;;;;;;5048499;28;9780;-83
2023/05/24 07:48:20;;;;;;;;;5.00;4.00;;;;;;;;5048757;28;9711;-85
2023/05/24 07:50:48;;;;;;;;;4.00;4.00;;;;;;;;5049104;28;10206;-85
2023/05/24 07:53:19;;;;;;;;;6.00;4.67;;;;;;;;5059554;28;9332;-84
2023/05/24 07:55:46;;;;;;;;;7.33;5.67;;;;;;;;5047795;28;9407;-82
2023/05/24 07:58:14;;;;;;;;;5.67;5.67;;;;;;;;5046076;28;9252;-81
2023/05/24 08:00:45;;;;;;;;;5.00;3.33;;;;;;;;5046925;28;9312;-82
2023/05/24 08:03:16;;;;;;;;;5.67;1.00;;;;;;;;5047665;28;9173;-82
2023/05/24 08:05:43;;;;;;;;;6.00;4.00;;;;;;;;5047700;28;9043;-82
2023/05/24 08:08:36;;;;;;;;;4.00;2.50;;;;;;;;5047450;28;9135;-82
2023/05/24 08:11:03;;;;;;;;;2.75;2.75;;;;;;;;5046965;28;8849;-82
2023/05/24 08:13:34;;;;;;;;;3.75;2.00;;;;;;;;5047596;28;8930;-83
2023/05/24 08:16:02;;;;;;;;;0.50;0.00;;;;;;;;5051131;28;8865;-82
2023/05/24 08:18:32;;;;;;;;;3.00;1.25;;;;;;;;5051648;28;8984;-82
2023/05/24 08:21:02;;;;;;;;;1.00;1.00;;;;;;;;5052983;28;8960;-82
2023/05/24 08:23:32;;;;;;;;;4.00;2.00;;;;;;;;5051359;28;8853;-82
2023/05/24 08:26:19;;;;;;;;;3.00;1.75;;;;;;;;5051051;28;8872;-83
2023/05/24 08:28:47;;;;;;;;;2.00;2.00;;;;;;;;5051628;28;8885;-83
2023/05/24 08:31:15;;;;;;;;;1.25;1.25;;;;;;;;5056280;28;8802;-82
2023/05/24 08:33:43;;;;;;;;;1.00;1.00;;;;;;;;5052675;28;9605;-82
2023/05/24 08:36:11;;;;;;;;;2.50;2.00;;;;;;;;5051106;28;8884;-83
2023/05/24 08:38:38;;;;;;;;;1.00;1.00;;;;;;;;5054174;28;8997;-82
2023/05/24 08:41:07;;;;;;;;;1.75;1.75;;;;;;;;5052368;28;8867;-82
2023/05/24 08:43:37;;;;;;;;;1.00;1.00;;;;;;;;5052221;28;8891;-82
2023/05/24 08:46:05;;;;;;;;;1.00;1.00;;;;;;;;5053127;28;8869;-81
2023/05/24 08:48:33;;;;;;;;;2.00;1.00;;;;;;;;5051079;28;8866;-81
2023/05/24 08:51:06;;;;;;;;;2.50;1.00;;;;;;;;5051914;28;8849;-81
2023/05/24 08:53:35;;;;;;;;;1.25;1.25;;;;;;;;5052041;28;9632;-82
2023/05/24 08:56:02;;;;;;;;;3.50;2.00;;;;;;;;5051817;28;9009;-81
2023/05/24 08:58:33;;;;;;;;;2.00;2.00;;;;;;;;5052488;28;8881;-82
2023/05/24 09:01:02;;;;;;;;;2.00;2.00;;;;;;;;5051615;28;8804;-82
2023/05/24 09:03:29;;;;;;;;;3.25;2.00;;;;;;;;5054026;28;8877;-82
2023/05/24 09:05:57;;;;;;;;;2.75;1.75;;;;;;;;5052377;28;8872;-82
2023/05/24 09:08:27;;;;;;;;;1.25;1.25;;;;;;;;5051679;28;8881;-82
2023/05/24 09:10:56;;;;;;;;;3.00;2.00;;;;;;;;5057867;28;8896;-83
2023/05/24 09:13:31;;;;;;;;;1.50;1.50;;;;;;;;5051037;28;8849;-82
2023/05/24 09:16:13;;;;;;;;;2.50;2.00;;;;;;;;5050451;28;9000;-82
2023/05/24 09:18:41;;;;;;;;;1.75;1.75;;;;;;;;5066925;28;8859;-81
2023/05/24 09:21:08;;;;;;;;;1.75;1.75;;;;;;;;5049061;28;8850;-82
2023/05/24 09:23:37;;;;;;;;;1.00;1.00;;;;;;;;5049910;28;8869;-81
2023/05/24 09:26:08;;;;;;;;;6.00;2.75;;;;;;;;5049572;28;8845;-81
2023/05/24 09:28:40;;;;;;;;;2.00;2.00;;;;;;;;5045264;28;8889;-82
2023/05/24 09:31:07;;;;;;;;;3.25;2.75;;;;;;;;5050147;28;8802;-81
2023/05/24 09:33:35;;;;;;;;;2.00;2.00;;;;;;;;5051377;28;8880;-80
2023/05/24 09:36:05;;;;;;;;;2.00;2.00;;;;;;;;5050351;28;8943;-81
2023/05/24 09:38:34;;;;;;;;;3.00;3.00;;;;;;;;5049489;28;8862;-81
2023/05/24 09:41:09;;;;;;;;;3.00;3.00;;;;;;;;5050192;28;8987;-81
2023/05/24 09:43:48;;;;;;;;;2.00;2.00;;;;;;;;5050450;28;8827;-81
2023/05/24 09:46:17;;;;;;;;;1.00;1.00;;;;;;;;5051072;28;8927;-81
2023/05/24 09:48:57;;;;;;;;;1.75;1.75;;;;;;;;5051092;28;8857;-81
2023/05/24 09:51:27;;;;;;;;;4.75;2.00;;;;;;;;5050121;28;8946;-82
2023/05/24 09:53:57;;;;;;;;;2.00;2.00;;;;;;;;5050872;28;8899;-82
2023/05/24 09:56:26;;;;;;;;;2.00;2.00;;;;;;;;5049705;28;8864;-81
2023/05/24 09:58:54;;;;;;;;;1.75;1.75;;;;;;;;5050068;28;9597;-82
2023/05/24 10:01:27;;;;;;;;;3.00;3.00;;;;;;;;5049568;28;9211;-82
2023/05/24 10:03:55;;;;;;;;;2.25;2.25;;;;;;;;5050290;28;8854;-81
2023/05/24 10:06:22;;;;;;;;;1.75;1.75;;;;;;;;5050240;28;8889;-82
2023/05/24 10:08:50;;;;;;;;;1.75;1.75;;;;;;;;5050009;28;8893;-81
2023/05/24 10:11:20;;;;;;;;;2.00;2.00;;;;;;;;5049110;28;8884;-80
2023/05/24 10:13:49;;;;;;;;;1.50;1.50;;;;;;;;5050444;28;8825;-82
2023/05/24 10:16:17;;;;;;;;;1.40;1.40;;;;;;;;5050703;28;8853;-83
2023/05/24 10:18:45;;;;;;;;;2.40;2.00;;;;;;;;5050509;28;8979;-83
2023/05/24 10:21:13;;;;;;;;;3.80;2.00;;;;;;;;5050803;28;8869;-83
2023/05/24 10:23:44;;;;;;;;;3.20;2.00;;;;;;;;5050615;28;9009;-83
2023/05/24 10:26:16;;;;;;;;;4.60;3.00;;;;;;;;5052273;28;8972;-83
2023/05/24 10:28:48;;;;;;;;;2.40;2.40;;;;;;;;5051628;28;8877;-83
2023/05/24 10:31:20;;;;;;;;;2.00;2.00;;;;;;;;5052030;28;8801;-83
2023/05/24 10:33:50;;;;;;;;;2.20;2.20;;;;;;;;5051159;28;8887;-84
2023/05/24 10:36:18;;;;;;;;;2.40;2.00;;;;;;;;5050992;28;8862;-83
2023/05/24 10:38:47;;;;;;;;;2.00;2.00;;;;;;;;5051206;28;8914;-83
2023/05/24 10:41:14;;;;;;;;;1.00;1.00;;;;;;;;5050827;28;8869;-83
2023/05/24 10:43:49;;;;;;;;;2.00;2.00;;;;;;;;5049315;28;8853;-84
2023/05/24 10:46:17;;;;;;;;;1.80;1.00;;;;;;;;5050608;28;8842;-84
2023/05/24 10:48:45;;;;;;;;;1.20;1.20;;;;;;;;5050553;28;8899;-83
2023/05/24 10:51:38;;;;;;;;;1.20;1.20;;;;;;;;5050826;28;8853;-83
2023/05/24 10:54:17;;;;;;;;;2.00;2.00;;;;;;;;5041472;28;8841;-83
2023/05/24 10:56:49;;;;;;;;;3.60;3.40;;;;;;;;5051621;28;8841;-83
2023/05/24 10:59:33;;;;;;;;;2.60;1.80;;;;;;;;5052806;28;9663;-82
2023/05/24 11:02:02;;;;;;;;;2.20;2.20;;;;;;;;5051355;28;8902;-84
2023/05/24 11:04:36;;;;;;;;;1.60;1.60;;;;;;;;5052192;28;8951;-84
2023/05/24 11:07:08;;;;;;;;;3.60;2.20;;;;;;;;5051673;28;8857;-83
2023/05/24 11:09:36;;;;;;;;;3.40;1.80;;;;;;;;5050418;28;8861;-84
2023/05/24 11:12:07;;;;;;;;;1.80;1.80;;;;;;;;5050179;28;8950;-84
2023/05/24 11:14:39;;;;;;;;;0.80;0.80;;;;;;;;5049089;28;8871;-84
2023/05/24 11:17:09;;;;;;;;;2.20;1.40;;;;;;;;5049243;28;8861;-84
2023/05/24 11:19:38;;;;;;;;;3.00;1.40;;;;;;;;5048543;28;8931;-85
2023/05/24 11:22:08;;;;;;;;;2.80;2.80;;;;;;;;5047849;28;8880;-83
2023/05/24 11:24:35;;;;;;;;;1.00;1.00;;;;;;;;5049090;28;8857;-83
2023/05/24 11:27:04;;;;;;;;;2.00;2.00;;;;;;;;5048280;28;8853;-82
2023/05/24 11:29:44;;;;;;;;;1.80;1.80;;;;;;;;5048678;28;8885;-81
2023/05/24 11:32:16;;;;;;;;;2.00;2.00;;;;;;;;5047805;28;9252;-82
2023/05/24 11:34:45;;;;;;;;;3.20;3.00;;;;;;;;5048703;28;8857;-82
2023/05/24 11:37:12;;;;;;;;;3.80;2.00;;;;;;;;5048597;28;8864;-83
2023/05/24 11:39:40;;;;;;;;;1.80;1.80;;;;;;;;5048670;28;8869;-82
2023/05/24 11:42:08;;;;;;;;;0.80;0.80;;;;;;;;5048247;28;8865;-82
2023/05/24 11:44:38;;;;;;;;;2.20;2.00;;;;;;;;5048457;28;8847;-83
2023/05/24 11:47:06;;;;;;;;;0.80;0.80;;;;;;;;5048552;28;8899;-83
2023/05/24 11:49:36;;;;;;;;;2.00;2.00;;;;;;;;5048327;28;8950;-82
2023/05/24 11:52:03;;;;;;;;;1.60;1.60;;;;;;;;5048150;28;8850;-80
2023/05/24 11:54:33;;;;;;;;;2.00;2.00;;;;;;;;5048120;28;8869;-80
2023/05/24 11:57:02;;;;;;;;;3.40;1.00;;;;;;;;5048697;28;8864;-80
2023/05/24 11:59:29;;;;;;;;;2.60;2.00;;;;;;;;5047492;28;8849;-80
2023/05/24 12:02:03;;;;;;;;;1.20;1.20;;;;;;;;5048369;28;8824;-80
2023/05/24 12:04:31;;;;;;;;;1.40;1.40;;;;;;;;5046365;28;9605;-80
2023/05/24 12:07:01;;;;;;;;;2.20;2.20;;;;;;;;5049943;28;8850;-80
2023/05/24 12:09:29;;;;;;;;;0.80;0.80;;;;;;;;5050009;28;8874;-83
2023/05/24 12:11:57;;;;;;;;;4.60;2.80;;;;;;;;5050474;28;9763;-80
2023/05/24 12:14:27;;;;;;;;;0.00;0.00;;;;;;;;5050738;28;8862;-81
2023/05/24 12:16:58;;;;;;;;;1.80;1.80;;;;;;;;5051946;28;8979;-82
2023/05/24 12:19:28;;;;;;;;;1.20;1.20;;;;;;;;5049488;28;8923;-82
2023/05/24 12:21:58;;;;;;;;;1.80;1.80;;;;;;;;5048368;28;8865;-82
2023/05/24 12:24:27;;;;;;;;;2.00;2.00;;;;;;;;5047959;28;8869;-82
2023/05/24 12:26:59;;;;;;;;;1.60;1.60;;;;;;;;5047368;28;8829;-82
2023/05/24 12:29:27;;;;;;;;;2.40;0.80;;;;;;;;5047169;28;9596;-82
2023/05/24 12:31:54;;;;;;;;;1.20;1.20;;;;;;;;5045044;28;8830;-83
2023/05/24 12:34:22;;;;;;;;;1.20;1.20;;;;;;;;5048002;28;8883;-85
2023/05/24 12:36:49;;;;;;;;;2.60;1.00;;;;;;;;5047174;28;8834;-82
2023/05/24 12:39:19;;;;;;;;;1.20;1.20;;;;;;;;5043775;28;8857;-77
2023/05/24 12:41:51;;;;;;;;;4.60;3.00;;;;;;;;5047063;28;9628;-79
2023/05/24 12:44:22;;;;;;;;;1.80;1.80;;;;;;;;5048230;28;8880;-79
2023/05/24 12:46:52;;;;;;;;;1.40;1.40;;;;;;;;5047195;28;8837;-80
2023/05/24 12:49:19;;;;;;;;;1.20;1.20;;;;;;;;5047541;28;8943;-83
2023/05/24 12:51:46;;;;;;;;;2.00;2.00;;;;;;;;5047517;28;8884;-80
2023/05/24 12:54:14;;;;;;;;;1.80;1.80;;;;;;;;5047589;28;8883;-81
2023/05/24 12:56:41;;;;;;;;;2.00;1.60;;;;;;;;5047873;28;9632;-83
2023/05/24 12:59:10;;;;;;;;;1.80;1.80;;;;;;;;5047818;28;9801;-82
2023/05/24 13:01:38;;;;;;;;;2.20;0.20;;;;;;;;5047313;28;8839;-83
2023/05/24 13:04:05;;;;;;;;;2.00;2.00;;;;;;;;5050525;28;9001;-81
2023/05/24 13:06:32;;;;;;;;;1.60;1.60;;;;;;;;5050682;28;8876;-81
2023/05/24 13:09:02;;;;;;;;;1.00;1.00;;;;;;;;5050424;28;8869;-81
2023/05/24 13:11:37;;;;;;;;;1.60;0.20;;;;;;;;5051505;28;8842;-82
2023/05/24 13:14:05;;;;;;;;;1.60;1.60;;;;;;;;5049808;28;8853;-82
2023/05/24 13:16:34;;;;;;;;;7.80;2.80;;;;;;;;5050570;28;8902;-82
2023/05/24 13:19:05;;;;;;;;;2.60;1.80;;;;;;;;5049411;28;8884;-81
2023/05/24 13:21:33;;;;;;;;;2.40;1.40;;;;;;;;5050944;28;8873;-77
2023/05/24 13:24:00;;;;;;;;;2.20;2.20;;;;;;;;5050694;28;9654;-78
2023/05/24 13:26:30;;;;;;;;;0.00;0.00;;;;;;;;5050995;28;8891;-78
2023/05/24 13:28:57;;;;;;;;;4.00;2.80;;;;;;;;5045367;28;8857;-77
2023/05/24 13:31:24;;;;;;;;;2.40;2.40;;;;;;;;5049863;28;8818;-76
2023/05/24 13:33:53;;;;;;;;;1.20;1.20;;;;;;;;5050719;28;9486;-78
2023/05/24 13:36:20;;;;;;;;;2.60;2.20;;;;;;;;5050087;28;8865;-77
2023/05/24 13:38:47;;;;;;;;;2.40;1.20;;;;;;;;5051168;28;8865;-80
2023/05/24 13:41:16;;;;;;;;;2.40;2.00;;;;;;;;5051620;28;8870;-79
2023/05/24 13:43:43;;;;;;;;;2.20;2.20;;;;;;;;5049949;28;8839;-78
2023/05/24 13:46:12;;;;;;;;;4.00;2.60;;;;;;;;5050720;28;8849;-80
2023/05/24 13:48:39;;;;;;;;;4.20;3.20;;;;;;;;5050450;28;8849;-80
2023/05/24 13:51:08;;;;;;;;;3.40;3.40;;;;;;;;5050960;28;9600;-80
2023/05/24 13:53:35;;;;;;;;;3.00;3.00;;;;;;;;5050490;28;8964;-80
2023/05/24 13:56:02;;;;;;;;;2.20;2.20;;;;;;;;5054405;28;8862;-79
2023/05/24 13:58:32;;;;;;;;;3.00;3.00;;;;;;;;5051297;28;8892;-80
2023/05/24 14:00:59;;;;;;;;;3.60;3.40;;;;;;;;5050791;28;8850;-80
2023/05/24 14:03:29;;;;;;;;;4.60;3.80;;;;;;;;5051793;28;8841;-80
2023/05/24 14:05:57;;;;;;;;;2.00;2.00;;;;;;;;5051145;28;8852;-80
2023/05/24 14:08:25;;;;;;;;;4.40;4.20;;;;;;;;5051637;28;8872;-78
2023/05/24 14:10:53;;;;;;;;;5.20;4.60;;;;;;;;5044638;28;8903;-80
2023/05/24 14:13:20;;;;;;;;;5.20;5.20;;;;;;;;5049943;28;8865;-79
2023/05/24 14:15:48;;;;;;;;;4.00;4.00;;;;;;;;5049397;28;8850;-79
2023/05/24 14:18:15;;;;;;;;;3.80;3.80;;;;;;;;5049173;28;8971;-79
2023/05/24 14:20:43;;;;;;;;;2.20;2.20;;;;;;;;5048542;28;8869;-79
2023/05/24 14:23:10;;;;;;;;;2.00;2.00;;;;;;;;5049653;28;8838;-79
2023/05/24 14:25:40;;;;;;;;;3.20;3.20;;;;;;;;5049454;28;8857;-79
2023/05/24 14:28:10;;;;;;;;;4.60;3.80;;;;;;;;5049892;28;8954;-79
2023/05/24 14:30:37;;;;;;;;;6.00;4.40;;;;;;;;5048475;28;9656;-79
2023/05/24 14:33:06;;;;;;;;;3.80;3.80;;;;;;;;5048373;28;8865;-79
2023/05/24 14:35:38;;;;;;;;;1.00;1.00;;;;;;;;5048577;28;8877;-79
2023/05/24 14:38:05;;;;;;;;;3.00;3.00;;;;;;;;5049424;28;8857;-79
2023/05/24 14:40:35;;;;;;;;;4.80;4.80;;;;;;;;5049439;28;8889;-79
2023/05/24 14:43:08;;;;;;;;;4.60;4.60;;;;;;;;5049396;28;8890;-79
2023/05/24 14:45:37;;;;;;;;;7.40;6.20;;;;;;;;5041502;28;8980;-79
2023/05/24 14:48:05;;;;;;;;;5.20;3.80;;;;;;;;5049131;28;8857;-79
2023/05/24 14:50:32;;;;;;;;;4.20;4.20;;;;;;;;5049662;28;8969;-79
2023/05/24 14:52:59;;;;;;;;;3.60;3.40;;;;;;;;5045280;28;8837;-78
2023/05/24 14:55:27;;;;;;;;;4.80;4.80;;;;;;;;5049009;28;8942;-77
2023/05/24 14:57:57;;;;;;;;;6.40;5.20;;;;;;;;5047729;28;8846;-78
2023/05/24 15:00:26;;;;;;;;;5.00;5.00;;;;;;;;5048643;28;8839;-76
2023/05/24 15:02:53;;;;;;;;;7.20;5.80;;;;;;;;5048355;28;8896;-75